Time;durP1;ratioP1;P1;durP2;ratioP2;P2;SDS_P1;SDS_P2;PMS_P1;PMS_P2;Temp;Humidity;BMP_temperature;BMP_pressure;BME280_temperature;BME280_humidity;BME280_pressure;Samples;Min_cycle;Max_cycle;Signal;HPM_P1;HPM_P2
2024/01/27 00:01:39;;;;;;;26.85;4.10;;;5.40;99.90;;;;;;5100761;28;20023;-44
2024/01/27 00:04:04;;;;;;;18.35;3.75;;;5.40;99.90;;;;;;5097847;28;20425;-46
2024/01/27 00:06:30;;;;;;;22.40;4.05;;;5.40;99.90;;;;;;5099855;28;20358;-44
2024/01/27 00:08:55;;;;;;;22.80;3.95;;;5.40;99.90;;;;;;5097759;28;20382;-42
2024/01/27 00:11:23;;;;;;;25.02;3.67;;;5.40;99.90;;;;;;5098199;28;20140;-42
2024/01/27 00:13:49;;;;;;;23.50;4.05;;;5.40;99.90;;;;;;5099841;28;20022;-42
2024/01/27 00:16:14;;;;;;;30.52;5.38;;;5.40;99.90;;;;;;5097847;28;20020;-42
2024/01/27 00:18:40;;;;;;;28.23;5.75;;;5.40;99.90;;;;;;5099330;28;20152;-46
2024/01/27 00:21:06;;;;;;;24.17;4.47;;;5.40;99.90;;;;;;5096868;28;20448;-42
2024/01/27 00:23:34;;;;;;;23.70;4.53;;;5.40;99.90;;;;;;5099863;28;20492;-48
2024/01/27 00:26:01;;;;;;;22.65;4.63;;;5.30;99.90;;;;;;5098072;28;20027;-43
2024/01/27 00:28:27;;;;;;;27.75;4.90;;;5.30;99.90;;;;;;5098689;28;20020;-43
2024/01/27 00:30:52;;;;;;;30.58;5.07;;;5.30;99.90;;;;;;5099171;28;20026;-44
2024/01/27 00:33:18;;;;;;;27.70;3.92;;;5.30;99.90;;;;;;5098127;28;20024;-44
2024/01/27 00:35:44;;;;;;;24.92;4.28;;;5.20;99.90;;;;;;5100967;28;20030;-43
2024/01/27 00:38:09;;;;;;;32.08;4.07;;;5.20;99.90;;;;;;5097857;28;20016;-42
2024/01/27 00:40:35;;;;;;;26.98;3.90;;;5.20;99.90;;;;;;5100364;28;21754;-42
2024/01/27 00:43:03;;;;;;;20.83;4.85;;;5.20;99.90;;;;;;5098053;28;20027;-42
2024/01/27 00:45:30;;;;;;;23.88;3.70;;;5.10;99.90;;;;;;5099482;28;20103;-42
2024/01/27 00:47:56;;;;;;;20.52;3.72;;;5.10;99.90;;;;;;5098607;28;20043;-42
2024/01/27 00:50:21;;;;;;;29.60;4.18;;;5.10;99.90;;;;;;5097067;28;20020;-42
2024/01/27 00:52:47;;;;;;;22.88;3.88;;;5.10;99.90;;;;;;5100365;28;20031;-44
2024/01/27 00:55:13;;;;;;;15.00;3.67;;;5.10;99.90;;;;;;5097599;28;20034;-43
2024/01/27 00:57:38;;;;;;;28.10;4.10;;;5.20;99.90;;;;;;5100979;28;20035;-43
2024/01/27 01:00:09;;;;;;;21.85;4.65;;;5.20;99.90;;;;;;5096959;28;20087;-43
2024/01/27 01:02:36;;;;;;;26.27;4.40;;;5.20;99.90;;;;;;5100071;28;20036;-42
2024/01/27 01:05:03;;;;;;;19.60;3.75;;;5.20;99.90;;;;;;5098608;28;20044;-46
2024/01/27 01:07:29;;;;;;;26.55;4.38;;;5.20;99.90;;;;;;5099644;28;20016;-44
2024/01/27 01:09:55;;;;;;;19.08;3.92;;;5.20;99.90;;;;;;5098712;28;20423;-44
2024/01/27 01:12:21;;;;;;;21.73;4.85;;;5.20;99.90;;;;;;5096773;28;20020;-43
2024/01/27 01:14:46;;;;;;;20.17;4.15;;;5.20;99.90;;;;;;5101130;28;20077;-44
2024/01/27 01:17:12;;;;;;;27.65;3.75;;;5.30;99.90;;;;;;5098026;28;20523;-42
2024/01/27 01:19:38;;;;;;;20.05;3.72;;;5.20;99.90;;;;;;5100727;28;20030;-43
2024/01/27 01:22:04;;;;;;;15.73;3.80;;;5.30;99.90;;;;;;5098074;27;20337;-44
2024/01/27 01:24:30;;;;;;;15.43;4.00;;;5.30;99.90;;;;;;5099512;28;20508;-43
2024/01/27 01:26:56;;;;;;;23.33;4.15;;;5.30;99.90;;;;;;5098619;28;20198;-42
2024/01/27 01:29:22;;;;;;;24.27;4.53;;;5.30;99.90;;;;;;5098372;28;20043;-42
2024/01/27 01:31:49;;;;;;;24.17;3.92;;;5.30;99.90;;;;;;5100591;28;20088;-42
2024/01/27 01:34:14;;;;;;;27.88;3.63;;;5.30;99.90;;;;;;5097762;28;20052;-44
2024/01/27 01:36:40;;;;;;;29.88;5.20;;;5.30;99.90;;;;;;5100913;28;20496;-42
2024/01/27 01:39:06;;;;;;;21.45;4.15;;;5.30;99.90;;;;;;5096824;28;20058;-43
2024/01/27 01:41:32;;;;;;;20.65;4.65;;;5.20;99.90;;;;;;5098293;28;20020;-42
2024/01/27 01:43:57;;;;;;;24.58;4.10;;;5.20;99.90;;;;;;5099876;28;20409;-45
2024/01/27 01:46:23;;;;;;;21.85;4.47;;;5.20;99.90;;;;;;5099243;28;20016;-44
2024/01/27 01:48:49;;;;;;;21.27;5.45;;;5.10;99.90;;;;;;5101282;28;20066;-44
2024/01/27 01:51:18;;;;;;;22.42;4.22;;;5.10;99.90;;;;;;5097972;28;20028;-42
2024/01/27 01:53:47;;;;;;;28.27;5.10;;;5.10;99.90;;;;;;5093908;28;20016;-43
2024/01/27 01:56:15;;;;;;;30.52;4.50;;;5.10;99.90;;;;;;5097870;28;20030;-43
2024/01/27 01:58:40;;;;;;;26.90;4.90;;;5.00;99.90;;;;;;5099878;28;20466;-43
2024/01/27 02:01:06;;;;;;;28.48;4.40;;;5.00;99.90;;;;;;5097624;28;20020;-43
2024/01/27 02:03:31;;;;;;;19.75;4.90;;;5.00;99.90;;;;;;5100108;28;20040;-43
2024/01/27 02:05:57;;;;;;;15.27;3.90;;;5.00;99.90;;;;;;5100303;28;20024;-43
2024/01/27 02:08:22;;;;;;;24.88;4.30;;;5.00;99.90;;;;;;5098784;28;20023;-43
2024/01/27 02:10:48;;;;;;;26.45;3.92;;;5.10;99.90;;;;;;5101462;28;20493;-42
2024/01/27 02:13:20;;;;;;;24.67;4.13;;;5.10;99.90;;;;;;5097764;28;20229;-43
2024/01/27 02:15:46;;;;;;;25.58;4.20;;;5.10;99.90;;;;;;5093257;28;20023;-50
2024/01/27 02:18:12;;;;;;;23.98;4.15;;;5.10;99.90;;;;;;5097934;28;20020;-43
2024/01/27 02:20:38;;;;;;;16.50;4.72;;;5.10;99.90;;;;;;5100960;28;20346;-43
2024/01/27 02:23:04;;;;;;;27.70;5.25;;;5.10;99.90;;;;;;5099079;28;20026;-44
2024/01/27 02:25:34;;;;;;;32.60;6.13;;;5.10;99.90;;;;;;5098486;28;20111;-45
2024/01/27 02:28:00;;;;;;;23.03;4.47;;;5.10;99.90;;;;;;5100144;28;20048;-42
2024/01/27 02:30:25;;;;;;;34.35;5.03;;;5.00;99.90;;;;;;5099448;28;20278;-43
2024/01/27 02:32:52;;;;;;;23.67;4.78;;;5.10;99.90;;;;;;5101291;28;20043;-43
2024/01/27 02:35:17;;;;;;;25.63;4.07;;;5.00;99.90;;;;;;5098212;28;20016;-43
2024/01/27 02:37:43;;;;;;;19.75;5.22;;;5.00;99.90;;;;;;5101560;28;20016;-43
2024/01/27 02:40:09;;;;;;;28.70;4.90;;;5.00;99.90;;;;;;5099056;28;20420;-42
2024/01/27 02:42:35;;;;;;;34.35;5.50;;;5.00;99.90;;;;;;5100293;28;20035;-42
2024/01/27 02:45:02;;;;;;;27.83;4.95;;;5.00;99.90;;;;;;5100127;28;20027;-43
2024/01/27 02:47:27;;;;;;;26.13;4.90;;;5.00;99.90;;;;;;5100010;28;20028;-43
2024/01/27 02:49:53;;;;;;;21.90;3.60;;;5.10;99.90;;;;;;5101823;28;20023;-44
2024/01/27 02:52:19;;;;;;;26.33;4.57;;;5.10;99.90;;;;;;5097149;28;20024;-43
2024/01/27 02:54:44;;;;;;;23.92;5.13;;;5.10;99.90;;;;;;5102172;28;20024;-44
2024/01/27 02:57:10;;;;;;;21.35;4.38;;;5.10;99.90;;;;;;5099672;28;20059;-44
2024/01/27 02:59:35;;;;;;;29.15;6.32;;;5.10;99.90;;;;;;5101052;28;20035;-43
2024/01/27 03:02:01;;;;;;;25.52;5.07;;;5.20;99.90;;;;;;5100176;28;20261;-43
2024/01/27 03:04:28;;;;;;;28.48;4.95;;;5.20;99.90;;;;;;5099650;28;20093;-43
2024/01/27 03:06:53;;;;;;;25.60;4.72;;;5.20;99.90;;;;;;5101617;28;20016;-42
2024/01/27 03:09:19;;;;;;;26.10;4.32;;;5.30;99.90;;;;;;5098822;28;20386;-43
2024/01/27 03:11:45;;;;;;;28.05;4.55;;;5.20;99.90;;;;;;5103611;28;20049;-43
2024/01/27 03:14:10;;;;;;;35.10;5.00;;;5.30;99.90;;;;;;5103577;28;20027;-49
2024/01/27 03:16:36;;;;;;;27.45;6.55;;;5.30;99.90;;;;;;5105068;28;20114;-43
2024/01/27 03:19:01;;;;;;;24.25;6.15;;;5.30;99.90;;;;;;5103387;28;20413;-43
2024/01/27 03:21:27;;;;;;;28.67;4.68;;;5.30;99.90;;;;;;5103480;28;20016;-42
2024/01/27 03:23:52;;;;;;;29.48;6.07;;;5.30;99.90;;;;;;5106221;28;20050;-42
2024/01/27 03:26:18;;;;;;;21.40;5.10;;;5.30;99.90;;;;;;5102973;28;20020;-45
2024/01/27 03:28:43;;;;;;;21.98;5.00;;;5.30;99.90;;;;;;5101383;28;20269;-42
2024/01/27 03:31:09;;;;;;;30.55;4.88;;;5.30;99.90;;;;;;5096596;28;20024;-43
2024/01/27 03:33:34;;;;;;;33.45;5.15;;;5.30;99.90;;;;;;5104874;28;20385;-43
2024/01/27 03:36:00;;;;;;;32.88;6.68;;;5.30;99.90;;;;;;5097931;28;20463;-42
2024/01/27 03:38:26;;;;;;;27.40;4.70;;;5.30;99.90;;;;;;5102960;28;20454;-43
2024/01/27 03:40:51;;;;;;;30.80;5.15;;;5.20;99.90;;;;;;5094504;28;20035;-45
2024/01/27 03:43:17;;;;;;;32.67;5.32;;;5.20;99.90;;;;;;5093223;28;20020;-44
2024/01/27 03:45:42;;;;;;;36.42;6.63;;;5.30;99.90;;;;;;5095990;28;20380;-47
2024/01/27 03:48:08;;;;;;;23.25;4.95;;;5.30;99.90;;;;;;5103715;28;20150;-44
2024/01/27 03:50:33;;;;;;;25.30;5.93;;;5.20;99.90;;;;;;5103254;28;20028;-43
2024/01/27 03:52:59;;;;;;;38.03;5.38;;;5.20;99.90;;;;;;5105103;28;20030;-42
2024/01/27 03:55:24;;;;;;;30.02;5.20;;;5.20;99.90;;;;;;5103370;28;20070;-42
2024/01/27 03:57:50;;;;;;;32.92;5.22;;;5.20;99.90;;;;;;5105643;27;20020;-42
2024/01/27 04:00:16;;;;;;;38.20;5.65;;;5.20;99.90;;;;;;5102611;28;20397;-43
2024/01/27 04:02:41;;;;;;;30.20;6.50;;;5.20;99.90;;;;;;5101352;28;20093;-44
2024/01/27 04:05:07;;;;;;;29.23;6.13;;;5.20;99.90;;;;;;5092444;28;20031;-42
2024/01/27 04:07:32;;;;;;;26.20;6.13;;;5.20;99.90;;;;;;5093686;28;20016;-44
2024/01/27 04:09:58;;;;;;;24.02;4.32;;;5.10;99.90;;;;;;5099124;28;20019;-42
2024/01/27 04:12:24;;;;;;;35.45;5.57;;;5.20;99.90;;;;;;5102784;28;20490;-43
2024/01/27 04:14:49;;;;;;;23.90;4.53;;;5.20;99.90;;;;;;5104057;28;20019;-43
2024/01/27 04:17:15;;;;;;;28.75;4.30;;;5.10;99.90;;;;;;5094930;28;20074;-42
2024/01/27 04:19:40;;;;;;;31.00;5.00;;;5.10;99.90;;;;;;5102074;28;20084;-43
2024/01/27 04:22:06;;;;;;;25.23;5.82;;;5.10;99.90;;;;;;5093571;28;20028;-42
2024/01/27 04:24:31;;;;;;;30.80;5.47;;;5.00;99.90;;;;;;5092342;28;20030;-42
2024/01/27 04:27:02;;;;;;;31.65;6.03;;;5.00;99.90;;;;;;5091856;28;20111;-42
2024/01/27 04:29:27;;;;;;;25.17;5.60;;;5.00;99.90;;;;;;5091244;28;20534;-43
2024/01/27 04:31:53;;;;;;;23.58;4.80;;;5.00;99.90;;;;;;5091864;28;20028;-43
2024/01/27 04:34:18;;;;;;;42.53;6.13;;;5.00;99.90;;;;;;5091935;28;20024;-44
2024/01/27 04:36:44;;;;;;;25.83;4.43;;;5.00;99.90;;;;;;5105938;28;20027;-44
2024/01/27 04:39:09;;;;;;;29.42;5.35;;;5.00;99.90;;;;;;5106560;28;20092;-42
2024/01/27 04:41:42;;;;;;;42.15;6.78;;;5.00;99.90;;;;;;5105211;28;20055;-43
2024/01/27 04:44:08;;;;;;;34.95;6.10;;;5.00;99.90;;;;;;5105210;28;20023;-42
2024/01/27 04:46:33;;;;;;;34.13;5.97;;;5.00;99.90;;;;;;5103503;28;20085;-42
2024/01/27 04:48:59;;;;;;;27.77;4.93;;;5.00;99.90;;;;;;5106245;28;20119;-42
2024/01/27 04:51:24;;;;;;;28.30;5.32;;;5.00;99.90;;;;;;5103613;28;20032;-44
2024/01/27 04:53:50;;;;;;;31.88;5.45;;;4.90;99.90;;;;;;5106118;28;20038;-42
2024/01/27 04:56:16;;;;;;;34.83;5.68;;;4.90;99.90;;;;;;5103938;28;20384;-43
2024/01/27 04:58:41;;;;;;;37.63;4.93;;;4.90;99.90;;;;;;5105790;28;20050;-43
2024/01/27 05:01:07;;;;;;;29.25;6.63;;;4.90;99.90;;;;;;5104808;28;20024;-42
2024/01/27 05:03:32;;;;;;;30.77;5.25;;;4.90;99.90;;;;;;5105112;28;20024;-42
2024/01/27 05:05:58;;;;;;;32.30;6.00;;;4.90;99.90;;;;;;5100463;28;20223;-42
2024/01/27 05:08:23;;;;;;;28.88;6.00;;;4.90;99.90;;;;;;5103813;28;20028;-45
2024/01/27 05:10:49;;;;;;;29.40;5.72;;;4.90;99.90;;;;;;5104698;28;20012;-44
2024/01/27 05:13:14;;;;;;;40.38;6.18;;;4.90;99.90;;;;;;5104253;28;20028;-44
2024/01/27 05:15:40;;;;;;;25.27;4.75;;;4.90;99.90;;;;;;5105536;28;20468;-42
2024/01/27 05:18:06;;;;;;;29.02;4.55;;;4.80;99.90;;;;;;5105350;28;20023;-46
2024/01/27 05:20:31;;;;;;;24.67;5.18;;;4.80;99.90;;;;;;5104702;28;20473;-43
2024/01/27 05:22:57;;;;;;;25.67;5.25;;;4.80;99.90;;;;;;5105707;28;20196;-43
2024/01/27 05:25:22;;;;;;;23.27;6.00;;;4.80;99.90;;;;;;5098698;28;20073;-43
2024/01/27 05:27:48;;;;;;;23.13;4.80;;;4.80;99.90;;;;;;5103080;28;20016;-47
2024/01/27 05:30:15;;;;;;;23.33;4.78;;;4.80;99.90;;;;;;5104602;28;20399;-43
2024/01/27 05:32:40;;;;;;;34.45;4.93;;;4.80;99.90;;;;;;5105780;28;20043;-42
2024/01/27 05:35:07;;;;;;;36.10;4.93;;;4.80;99.90;;;;;;5104229;28;20054;-43
2024/01/27 05:37:32;;;;;;;28.75;5.20;;;4.80;99.90;;;;;;5104766;28;20052;-43
2024/01/27 05:39:58;;;;;;;30.15;5.30;;;4.70;99.90;;;;;;5099655;28;20060;-42
2024/01/27 05:42:23;;;;;;;31.35;5.78;;;4.70;99.90;;;;;;5091629;28;20609;-42
2024/01/27 05:44:49;;;;;;;26.75;4.13;;;4.70;99.90;;;;;;5091227;28;20099;-43
2024/01/27 05:47:14;;;;;;;29.02;5.18;;;4.70;99.90;;;;;;5102235;28;20484;-42
2024/01/27 05:49:40;;;;;;;34.03;7.20;;;4.70;99.90;;;;;;5105612;28;20022;-44
2024/01/27 05:52:06;;;;;;;28.48;4.68;;;4.60;99.90;;;;;;5098752;28;20504;-42
2024/01/27 05:54:32;;;;;;;23.95;6.18;;;4.60;99.90;;;;;;5094382;28;20084;-43
2024/01/27 05:56:58;;;;;;;29.30;5.40;;;4.50;99.90;;;;;;5088343;28;20020;-45
2024/01/27 05:59:23;;;;;;;24.00;4.57;;;4.50;99.90;;;;;;5088160;28;20092;-43
2024/01/27 06:01:49;;;;;;;33.08;4.05;;;4.40;99.90;;;;;;5087812;28;20028;-42
2024/01/27 06:04:15;;;;;;;26.80;5.70;;;4.40;99.90;;;;;;5088395;28;20032;-43
2024/01/27 06:06:40;;;;;;;24.48;5.47;;;4.40;99.90;;;;;;5092001;28;20027;-43
2024/01/27 06:09:10;;;;;;;27.58;4.82;;;4.30;99.90;;;;;;5106420;28;20358;-43
2024/01/27 06:11:36;;;;;;;26.73;5.57;;;4.30;99.90;;;;;;5104692;28;20514;-43
2024/01/27 06:14:02;;;;;;;31.63;7.80;;;4.30;99.90;;;;;;5106309;28;20513;-43
2024/01/27 06:16:27;;;;;;;16.23;4.68;;;4.20;99.90;;;;;;5104678;28;20626;-45
2024/01/27 06:18:54;;;;;;;26.50;4.35;;;4.10;99.90;;;;;;5105095;28;20035;-44
2024/01/27 06:21:20;;;;;;;28.92;5.00;;;4.10;99.90;;;;;;5104998;28;20370;-44
2024/01/27 06:23:45;;;;;;;24.45;6.13;;;4.10;99.90;;;;;;5106752;28;20015;-43
2024/01/27 06:26:13;;;;;;;21.58;5.00;;;4.00;99.90;;;;;;5105879;28;20032;-45
2024/01/27 06:28:39;;;;;;;29.30;6.40;;;3.90;99.90;;;;;;5104258;28;20077;-44
2024/01/27 06:31:05;;;;;;;21.00;4.63;;;3.90;99.90;;;;;;5091560;28;20236;-43
2024/01/27 06:33:31;;;;;;;29.60;6.15;;;3.80;99.90;;;;;;5093777;28;20032;-43
2024/01/27 06:36:00;;;;;;;29.70;5.85;;;3.80;99.90;;;;;;5089378;28;20103;-43
2024/01/27 06:38:27;;;;;;;25.83;5.57;;;3.70;99.90;;;;;;5099012;28;20103;-45
2024/01/27 06:40:53;;;;;;;33.67;5.63;;;3.70;99.90;;;;;;5096533;28;20024;-44
2024/01/27 06:43:19;;;;;;;29.05;5.78;;;3.70;99.90;;;;;;5097153;28;20012;-45
2024/01/27 06:45:44;;;;;;;21.50;4.55;;;3.70;99.90;;;;;;5100820;28;20476;-48
2024/01/27 06:48:10;;;;;;;28.13;6.75;;;3.60;99.90;;;;;;5101699;28;20369;-47
2024/01/27 06:50:35;;;;;;;34.17;5.47;;;3.60;99.90;;;;;;5104015;28;20016;-47
2024/01/27 06:53:01;;;;;;;31.73;6.25;;;3.60;99.90;;;;;;5099325;28;20077;-44
2024/01/27 06:55:27;;;;;;;26.42;4.75;;;3.50;99.90;;;;;;5100794;28;20088;-43
2024/01/27 06:57:53;;;;;;;27.60;6.95;;;3.50;99.90;;;;;;5102852;28;20032;-44
2024/01/27 07:00:19;;;;;;;29.90;7.30;;;3.50;99.90;;;;;;5100810;28;20027;-44
2024/01/27 07:02:45;;;;;;;27.10;5.15;;;3.50;99.90;;;;;;5103366;28;20035;-43
2024/01/27 07:05:12;;;;;;;25.27;4.95;;;3.40;99.90;;;;;;5101301;28;20226;-43
2024/01/27 07:07:39;;;;;;;24.08;4.60;;;3.40;99.90;;;;;;5103769;28;20015;-44
2024/01/27 07:10:07;;;;;;;32.63;6.78;;;3.40;99.90;;;;;;5102081;28;20500;-43
2024/01/27 07:12:33;;;;;;;34.78;4.60;;;3.40;99.90;;;;;;5102307;28;20069;-43
2024/01/27 07:14:59;;;;;;;18.25;5.40;;;3.40;99.90;;;;;;5103257;28;20118;-44
2024/01/27 07:17:26;;;;;;;27.20;5.13;;;3.40;99.90;;;;;;5103230;28;20644;-44
2024/01/27 07:19:52;;;;;;;23.05;4.57;;;3.30;99.90;;;;;;5104043;28;20016;-42
2024/01/27 07:22:17;;;;;;;33.65;5.15;;;3.30;99.90;;;;;;5101200;28;20196;-43
2024/01/27 07:24:43;;;;;;;35.03;5.63;;;3.30;99.90;;;;;;5096968;28;20066;-44
2024/01/27 07:27:12;;;;;;;21.33;5.53;;;3.30;99.90;;;;;;5106934;28;20120;-44
2024/01/27 07:29:37;;;;;;;24.17;5.10;;;3.30;99.90;;;;;;5097515;28;20024;-45
2024/01/27 07:32:03;;;;;;;34.53;5.50;;;3.30;99.90;;;;;;5090658;28;20028;-43
2024/01/27 07:34:29;;;;;;;29.15;6.00;;;3.30;99.90;;;;;;5091763;28;20438;-44
2024/01/27 07:36:54;;;;;;;23.70;5.68;;;3.30;99.90;;;;;;5092937;28;20027;-43
2024/01/27 07:39:20;;;;;;;31.63;7.28;;;3.30;99.90;;;;;;5100228;28;20031;-42
2024/01/27 07:41:46;;;;;;;25.13;5.35;;;3.30;99.90;;;;;;5095440;28;20082;-43
2024/01/27 07:44:13;;;;;;;28.95;7.00;;;3.30;99.90;;;;;;5077178;28;20020;-46
2024/01/27 07:46:40;;;;;;;26.88;5.50;;;3.40;99.90;;;;;;5096861;28;20016;-43
2024/01/27 07:49:06;;;;;;;20.92;4.68;;;3.40;99.90;;;;;;5106002;28;20020;-44
2024/01/27 07:51:35;;;;;;;25.52;4.95;;;3.40;99.90;;;;;;5107408;28;20028;-44
2024/01/27 07:54:01;;;;;;;24.38;4.70;;;3.40;99.90;;;;;;5107681;28;20050;-44
2024/01/27 07:56:27;;;;;;;32.38;5.88;;;3.40;99.90;;;;;;5107514;27;20060;-47
2024/01/27 07:58:53;;;;;;;30.88;5.18;;;3.50;99.90;;;;;;5103758;28;20076;-43
2024/01/27 08:01:19;;;;;;;31.00;5.90;;;3.40;99.90;;;;;;5101990;28;20040;-43
2024/01/27 08:03:45;;;;;;;21.88;4.35;;;3.50;99.90;;;;;;5104595;28;20024;-44
2024/01/27 08:06:16;;;;;;;28.38;5.03;;;3.50;99.90;;;;;;5103550;28;20442;-46
2024/01/27 08:08:47;;;;;;;25.00;6.45;;;3.60;99.90;;;;;;5100851;28;20469;-44
2024/01/27 08:11:17;;;;;;;20.45;5.43;;;3.60;99.90;;;;;;5094729;28;20465;-43
2024/01/27 08:13:42;;;;;;;21.23;5.40;;;3.60;99.90;;;;;;5091707;28;20032;-45
2024/01/27 08:16:12;;;;;;;28.35;5.18;;;3.60;99.90;;;;;;5092630;28;20024;-44
2024/01/27 08:18:45;;;;;;;24.00;5.38;;;3.60;99.90;;;;;;5095460;28;20019;-44
2024/01/27 08:21:14;;;;;;;29.35;5.72;;;3.70;99.90;;;;;;5091963;28;20028;-44
2024/01/27 08:23:39;;;;;;;20.17;4.35;;;3.70;99.90;;;;;;5092393;28;20027;-43
2024/01/27 08:26:05;;;;;;;20.55;4.13;;;3.70;99.90;;;;;;5089882;28;20020;-45
2024/01/27 08:28:30;;;;;;;26.17;5.85;;;3.70;99.90;;;;;;5086869;28;20028;-43
2024/01/27 08:30:56;;;;;;;21.77;5.28;;;3.70;99.90;;;;;;5089325;28;20036;-43
2024/01/27 08:33:22;;;;;;;26.67;5.78;;;3.80;99.90;;;;;;5089208;28;20020;-44
2024/01/27 08:35:51;;;;;;;32.60;5.10;;;3.80;99.90;;;;;;5089786;28;20012;-48
2024/01/27 08:38:17;;;;;;;28.50;4.88;;;3.90;99.90;;;;;;5087468;28;20013;-44
2024/01/27 08:40:43;;;;;;;34.78;5.78;;;3.80;99.90;;;;;;5089706;28;20027;-43
2024/01/27 08:43:09;;;;;;;29.98;5.53;;;3.90;99.90;;;;;;5089744;28;20040;-42
2024/01/27 08:45:36;;;;;;;23.73;5.25;;;3.90;99.90;;;;;;5090329;28;20016;-45
2024/01/27 08:48:02;;;;;;;29.10;7.20;;;4.00;99.90;;;;;;5088696;28;20019;-45
2024/01/27 08:50:27;;;;;;;27.40;5.80;;;4.00;99.90;;;;;;5088756;28;20016;-42
2024/01/27 08:52:53;;;;;;;22.13;4.90;;;4.10;99.90;;;;;;5089531;28;20031;-45
2024/01/27 08:55:19;;;;;;;20.88;5.47;;;4.10;99.90;;;;;;5089878;28;20113;-43
2024/01/27 08:57:48;;;;;;;15.93;5.05;;;4.10;99.90;;;;;;5082126;28;20020;-42
2024/01/27 09:00:15;;;;;;;39.95;6.18;;;4.20;99.90;;;;;;5068854;28;20051;-44
2024/01/27 09:02:40;;;;;;;31.08;6.07;;;4.20;99.90;;;;;;5090171;28;20024;-43
2024/01/27 09:05:06;;;;;;;22.23;5.40;;;4.30;99.90;;;;;;5088536;28;20054;-43
2024/01/27 09:07:33;;;;;;;32.83;6.18;;;4.30;99.90;;;;;;5089745;28;20414;-42
2024/01/27 09:09:58;;;;;;;21.40;5.25;;;4.40;99.90;;;;;;5089831;28;20043;-44
2024/01/27 09:12:24;;;;;;;29.70;5.68;;;4.50;99.90;;;;;;5090238;28;20047;-43
2024/01/27 09:14:49;;;;;;;20.65;5.20;;;4.50;99.90;;;;;;5089071;28;20035;-43
2024/01/27 09:17:15;;;;;;;28.27;5.75;;;4.50;99.90;;;;;;5090153;28;20381;-44
2024/01/27 09:19:41;;;;;;;21.95;5.35;;;4.60;99.90;;;;;;5090481;28;20525;-42
2024/01/27 09:22:06;;;;;;;30.25;7.32;;;4.60;99.90;;;;;;5088411;28;20030;-45
2024/01/27 09:24:32;;;;;;;28.45;5.93;;;4.70;99.90;;;;;;5090562;28;20031;-43
2024/01/27 09:26:57;;;;;;;27.42;6.53;;;4.70;99.90;;;;;;5089954;28;20497;-42
2024/01/27 09:29:23;;;;;;;20.75;5.53;;;4.80;99.90;;;;;;5089519;28;20016;-43
2024/01/27 09:31:49;;;;;;;25.60;5.53;;;4.80;99.90;;;;;;5089928;28;20055;-42
2024/01/27 09:34:14;;;;;;;31.55;6.68;;;4.90;99.90;;;;;;5090142;28;20024;-42
2024/01/27 09:36:40;;;;;;;25.88;6.03;;;5.00;99.90;;;;;;5091063;28;20024;-44
2024/01/27 09:39:05;;;;;;;33.70;7.38;;;5.00;99.90;;;;;;5089942;28;20056;-42
2024/01/27 09:41:32;;;;;;;23.17;6.20;;;5.10;99.90;;;;;;5088357;28;20032;-44
2024/01/27 09:44:03;;;;;;;24.42;6.45;;;5.10;99.90;;;;;;5089195;28;20423;-42
2024/01/27 09:46:30;;;;;;;29.90;6.22;;;5.20;99.90;;;;;;5090231;28;20373;-43
2024/01/27 09:48:56;;;;;;;19.73;5.20;;;5.30;99.90;;;;;;5090419;28;20027;-43
2024/01/27 09:51:22;;;;;;;19.92;5.65;;;5.40;99.90;;;;;;5090857;28;20069;-43
2024/01/27 09:53:51;;;;;;;25.15;6.15;;;5.40;99.90;;;;;;5090579;28;20508;-46
2024/01/27 09:56:18;;;;;;;20.85;4.68;;;5.50;99.90;;;;;;5090347;28;20020;-45
2024/01/27 09:58:45;;;;;;;29.77;5.22;;;5.60;99.90;;;;;;5090915;28;20077;-45
2024/01/27 10:01:11;;;;;;;25.38;5.53;;;5.60;99.90;;;;;;5090002;28;20032;-43
2024/01/27 10:03:40;;;;;;;32.67;6.07;;;5.70;99.90;;;;;;5090038;28;20224;-47
2024/01/27 10:06:08;;;;;;;21.08;5.68;;;5.80;99.90;;;;;;5090570;28;20016;-45
2024/01/27 10:08:34;;;;;;;21.00;5.35;;;5.90;99.90;;;;;;5090192;28;20037;-43
2024/01/27 10:11:06;;;;;;;21.35;5.38;;;6.00;99.90;;;;;;5088567;28;20033;-44
2024/01/27 10:13:32;;;;;;;23.38;7.00;;;6.10;99.90;;;;;;5090056;28;20125;-43
2024/01/27 10:16:05;;;;;;;27.42;6.20;;;6.10;99.90;;;;;;5088514;28;20107;-44
2024/01/27 10:18:31;;;;;;;28.00;5.25;;;6.20;99.90;;;;;;5091240;28;20489;-44
2024/01/27 10:20:57;;;;;;;25.35;6.15;;;6.30;99.90;;;;;;5088158;28;20039;-42
2024/01/27 10:23:26;;;;;;;20.73;5.25;;;6.40;99.90;;;;;;5091426;28;20024;-43
2024/01/27 10:25:52;;;;;;;25.80;6.03;;;6.50;99.90;;;;;;5086512;28;20493;-43
2024/01/27 10:28:18;;;;;;;20.98;6.05;;;7.20;99.90;;;;;;5090654;28;20205;-44
2024/01/27 10:30:44;;;;;;;21.95;5.43;;;8.40;99.90;;;;;;5091678;28;20507;-44
2024/01/27 10:33:11;;;;;;;18.13;5.40;;;9.90;99.90;;;;;;5090892;28;20111;-43
2024/01/27 10:35:36;;;;;;;18.27;5.88;;;11.20;99.90;;;;;;5092247;28;20323;-45
2024/01/27 10:38:02;;;;;;;18.60;5.55;;;12.20;99.90;;;;;;5091151;28;20085;-44
2024/01/27 10:40:28;;;;;;;18.00;5.82;;;13.20;96.50;;;;;;5091962;28;20050;-43
2024/01/27 10:43:13;;;;;;;15.63;5.47;;;13.80;94.90;;;;;;5090635;28;20020;-46
2024/01/27 10:45:40;;;;;;;20.73;5.30;;;14.50;94.40;;;;;;5092248;28;20065;-43
2024/01/27 10:48:07;;;;;;;14.10;5.78;;;15.50;92.10;;;;;;5090044;28;20385;-44
2024/01/27 10:50:38;;;;;;;20.48;5.72;;;16.10;90.60;;;;;;5091212;28;20481;-44
2024/01/27 10:53:08;;;;;;;17.88;5.57;;;16.50;87.40;;;;;;5091124;28;20032;-45
2024/01/27 10:55:37;;;;;;;17.15;4.85;;;16.90;84.70;;;;;;5091652;28;20551;-45
2024/01/27 10:58:03;;;;;;;14.32;5.32;;;16.80;84.40;;;;;;5091308;28;20485;-45
2024/01/27 11:00:30;;;;;;;15.90;5.13;;;17.20;84.00;;;;;;5089536;28;20032;-44
2024/01/27 11:03:02;;;;;;;18.52;5.05;;;17.40;81.70;;;;;;5091151;28;20649;-44
2024/01/27 11:05:29;;;;;;;16.13;5.13;;;17.60;81.60;;;;;;5089300;28;20043;-46
2024/01/27 11:07:57;;;;;;;16.65;5.18;;;18.00;80.90;;;;;;5090102;28;20059;-44
2024/01/27 11:10:23;;;;;;;18.88;4.72;;;17.70;79.60;;;;;;5089828;28;20481;-45
2024/01/27 11:12:50;;;;;;;13.98;5.88;;;17.80;77.80;;;;;;5091680;28;20032;-45
2024/01/27 11:15:16;;;;;;;13.45;4.57;;;17.90;77.80;;;;;;5091359;28;20028;-46
2024/01/27 11:17:42;;;;;;;20.00;5.53;;;17.90;79.00;;;;;;5093078;28;20028;-48
2024/01/27 11:20:11;;;;;;;12.45;4.65;;;18.20;78.40;;;;;;5091352;28;20286;-47
2024/01/27 11:22:37;;;;;;;16.33;5.47;;;18.60;76.20;;;;;;5092796;28;20024;-46
2024/01/27 11:25:11;;;;;;;16.80;5.20;;;18.70;75.50;;;;;;5087430;28;20019;-46
2024/01/27 11:27:37;;;;;;;14.40;4.60;;;18.70;75.60;;;;;;5088293;28;20031;-45
2024/01/27 11:30:04;;;;;;;16.35;5.28;;;18.90;74.90;;;;;;5087789;28;20024;-47
2024/01/27 11:32:30;;;;;;;13.25;4.93;;;19.00;74.60;;;;;;5089531;28;20086;-47
2024/01/27 11:34:57;;;;;;;17.63;6.00;;;18.90;73.90;;;;;;5093696;28;20024;-48
2024/01/27 11:37:25;;;;;;;18.70;5.05;;;18.60;73.50;;;;;;5093718;28;20028;-45
2024/01/27 11:40:05;;;;;;;12.65;4.35;;;18.10;75.00;;;;;;5095446;28;20529;-48
2024/01/27 11:42:30;;;;;;;13.85;5.28;;;18.80;74.20;;;;;;5095535;28;20090;-46
2024/01/27 11:44:56;;;;;;;14.32;5.32;;;18.60;74.40;;;;;;5095434;28;20424;-46
2024/01/27 11:47:22;;;;;;;13.40;4.50;;;18.80;74.10;;;;;;5095713;28;20098;-47
2024/01/27 11:49:53;;;;;;;21.20;7.03;;;19.10;73.10;;;;;;5092628;28;20105;-47
2024/01/27 11:52:19;;;;;;;18.50;5.18;;;18.70;72.70;;;;;;5092964;28;20145;-44
2024/01/27 11:54:44;;;;;;;14.43;5.90;;;18.60;74.70;;;;;;5095166;28;20099;-44
2024/01/27 11:57:10;;;;;;;13.82;5.22;;;18.30;73.30;;;;;;5094039;28;20027;-46
2024/01/27 11:59:35;;;;;;;11.68;5.60;;;18.80;72.50;;;;;;5097246;28;20396;-47
2024/01/27 12:02:02;;;;;;;18.88;5.78;;;18.80;73.00;;;;;;5095219;28;20035;-44
2024/01/27 12:04:28;;;;;;;14.68;6.07;;;18.90;71.70;;;;;;5096796;28;20489;-45
2024/01/27 12:06:53;;;;;;;13.70;5.68;;;19.00;73.50;;;;;;5095740;28;20031;-48
2024/01/27 12:09:19;;;;;;;17.80;4.85;;;18.70;73.50;;;;;;5095696;28;20042;-44
2024/01/27 12:11:45;;;;;;;17.48;5.28;;;18.70;75.00;;;;;;5096593;28;20034;-46
2024/01/27 12:14:11;;;;;;;17.25;5.28;;;19.00;71.80;;;;;;5095266;28;20024;-46
2024/01/27 12:16:38;;;;;;;15.02;5.47;;;18.90;71.30;;;;;;5095754;28;20163;-45
2024/01/27 12:19:03;;;;;;;16.73;5.28;;;18.20;73.10;;;;;;5093866;28;20473;-42
2024/01/27 12:21:29;;;;;;;17.20;5.97;;;18.20;74.30;;;;;;5094641;28;20078;-42
2024/01/27 12:23:58;;;;;;;12.88;5.40;;;18.50;72.90;;;;;;5090144;28;20039;-42
2024/01/27 12:26:31;;;;;;;17.08;5.20;;;18.50;73.40;;;;;;5095921;28;20095;-44
2024/01/27 12:29:00;;;;;;;18.52;5.50;;;18.70;72.70;;;;;;5095493;28;20039;-46
2024/01/27 12:31:26;;;;;;;17.05;5.85;;;18.80;71.50;;;;;;5095590;28;20035;-43
2024/01/27 12:33:54;;;;;;;16.70;5.60;;;18.80;70.40;;;;;;5095664;28;20063;-43
2024/01/27 12:36:20;;;;;;;16.15;5.10;;;18.00;73.40;;;;;;5092623;28;20081;-42
2024/01/27 12:38:52;;;;;;;14.85;6.07;;;17.80;73.30;;;;;;5095713;28;20020;-46
2024/01/27 12:41:17;;;;;;;20.48;6.63;;;17.40;74.40;;;;;;5094873;28;20499;-43